SAS9138 ESSA-EKCH
Flight info
| Callsign | SAS9138 |
|---|---|
| Flight time | 0h 55m |
| Altitude | 40000 |
| Route | PETEV N872 ERNOV |
| Aircraft | A343/H-SDE1FGHIJ1RWXYZ/LB1 |
Departure
| Time | 2026-04-22 06:43 |
|---|---|
| Airport | Stockholm-Arlanda Airport (ESSA) |
Arrival
| Time | 2026-04-22 07:38 |
|---|---|
| Airport | Copenhagen Kastrup Airport (EKCH) |
| Time | Latitude | Longitude | Altitude | Speed | Heading |
|---|---|---|---|---|---|
| 2026-04-22 06:15 | 59.65474 | 17.93746 | 116 ft | 0 kts | 248° |
| 2026-04-22 06:30 | 59.65474 | 17.93749 | 116 ft | 2 kts | 248° |
| 2026-04-22 06:30 | 59.65484 | 17.93794 | 114 ft | 4 kts | 248° |
| 2026-04-22 06:30 | 59.65493 | 17.93837 | 115 ft | 4 kts | 254° |
| 2026-04-22 06:30 | 59.65495 | 17.93885 | 116 ft | 4 kts | 299° |
| 2026-04-22 06:31 | 59.65476 | 17.93915 | 113 ft | 4 kts | 345° |
| 2026-04-22 06:31 | 59.65453 | 17.93925 | 117 ft | 1 kts | 346° |
| 2026-04-22 06:33 | 59.65454 | 17.93925 | 117 ft | 0 kts | 346° |
| 2026-04-22 06:35 | 59.65472 | 17.93916 | 117 ft | 5 kts | 346° |
| 2026-04-22 06:35 | 59.65515 | 17.93894 | 116 ft | 8 kts | 346° |
| 2026-04-22 06:35 | 59.65577 | 17.93849 | 114 ft | 10 kts | 326° |
| 2026-04-22 06:35 | 59.65586 | 17.93739 | 114 ft | 9 kts | 255° |
| 2026-04-22 06:36 | 59.65569 | 17.93590 | 117 ft | 13 kts | 257° |
| 2026-04-22 06:36 | 59.65544 | 17.93396 | 112 ft | 16 kts | 254° |
| 2026-04-22 06:36 | 59.65517 | 17.93188 | 112 ft | 15 kts | 256° |
| 2026-04-22 06:36 | 59.65487 | 17.92973 | 112 ft | 17 kts | 252° |
| 2026-04-22 06:37 | 59.65439 | 17.92737 | 115 ft | 19 kts | 242° |
| 2026-04-22 06:37 | 59.65355 | 17.92536 | 113 ft | 20 kts | 220° |
| 2026-04-22 06:37 | 59.65235 | 17.92404 | 115 ft | 20 kts | 198° |
| 2026-04-22 06:37 | 59.65101 | 17.92348 | 116 ft | 20 kts | 190° |
| 2026-04-22 06:38 | 59.64964 | 17.92298 | 114 ft | 20 kts | 191° |
| 2026-04-22 06:38 | 59.64839 | 17.92253 | 112 ft | 17 kts | 190° |
| 2026-04-22 06:38 | 59.64724 | 17.92210 | 113 ft | 17 kts | 190° |
| 2026-04-22 06:38 | 59.64597 | 17.92166 | 113 ft | 20 kts | 190° |
| 2026-04-22 06:39 | 59.64470 | 17.92120 | 115 ft | 15 kts | 191° |
| 2026-04-22 06:39 | 59.64376 | 17.92084 | 114 ft | 9 kts | 191° |
| 2026-04-22 06:39 | 59.64332 | 17.92002 | 114 ft | 9 kts | 251° |
| 2026-04-22 06:39 | 59.64288 | 17.91892 | 114 ft | 11 kts | 204° |
| 2026-04-22 06:40 | 59.64205 | 17.91858 | 114 ft | 14 kts | 190° |
| 2026-04-22 06:40 | 59.64100 | 17.91819 | 114 ft | 17 kts | 190° |
| 2026-04-22 06:40 | 59.63978 | 17.91774 | 114 ft | 18 kts | 191° |
| 2026-04-22 06:40 | 59.63869 | 17.91727 | 111 ft | 17 kts | 199° |
| 2026-04-22 06:41 | 59.63773 | 17.91597 | 109 ft | 15 kts | 219° |
| 2026-04-22 06:41 | 59.63729 | 17.91451 | 112 ft | 12 kts | 270° |
| 2026-04-22 06:41 | 59.63770 | 17.91352 | 112 ft | 10 kts | 341° |
| 2026-04-22 06:41 | 59.63826 | 17.91357 | 112 ft | 5 kts | 11° |
| 2026-04-22 06:42 | 59.63830 | 17.91359 | 113 ft | 2 kts | 11° |
| 2026-04-22 06:42 | 59.64007 | 17.91426 | 112 ft | 64 kts | 10° |
| 2026-04-22 06:42 | 59.64707 | 17.91674 | 110 ft | 136 kts | 10° |
| 2026-04-22 06:42 | 59.65750 | 17.92058 | 632 ft | 157 kts | 8° |
| 2026-04-22 06:43 | 59.66839 | 17.92449 | 1431 ft | 164 kts | 7° |
| 2026-04-22 06:43 | 59.68006 | 17.92829 | 2089 ft | 176 kts | 5° |
| 2026-04-22 06:43 | 59.69217 | 17.92471 | 2689 ft | 179 kts | 332° |
| 2026-04-22 06:43 | 59.70006 | 17.90570 | 3419 ft | 189 kts | 291° |
| 2026-04-22 06:44 | 59.69883 | 17.87858 | 4157 ft | 213 kts | 252° |
| 2026-04-22 06:44 | 59.69239 | 17.85166 | 5040 ft | 218 kts | 252° |
| 2026-04-22 06:44 | 59.68786 | 17.82312 | 5973 ft | 217 kts | 264° |
| 2026-04-22 06:44 | 59.68698 | 17.79427 | 6960 ft | 210 kts | 277° |
| 2026-04-22 06:45 | 59.68562 | 17.76483 | 7821 ft | 223 kts | 264° |
| 2026-04-22 06:45 | 59.68138 | 17.73335 | 8263 ft | 251 kts | 258° |
| 2026-04-22 06:45 | 59.67581 | 17.69906 | 8801 ft | 270 kts | 256° |
| 2026-04-22 06:45 | 59.66686 | 17.66524 | 9535 ft | 288 kts | 236° |
| 2026-04-22 06:46 | 59.65059 | 17.64098 | 10376 ft | 303 kts | 207° |
| 2026-04-22 06:46 | 59.63017 | 17.62643 | 10893 ft | 323 kts | 199° |
| 2026-04-22 06:46 | 59.60784 | 17.61335 | 11239 ft | 345 kts | 198° |
| 2026-04-22 06:46 | 59.58417 | 17.59959 | 11663 ft | 361 kts | 198° |
| 2026-04-22 06:47 | 59.55983 | 17.58519 | 12297 ft | 369 kts | 199° |
| 2026-04-22 06:47 | 59.53547 | 17.56850 | 12978 ft | 373 kts | 205° |
| 2026-04-22 06:47 | 59.51280 | 17.54358 | 13686 ft | 375 kts | 218° |
| 2026-04-22 06:47 | 59.49256 | 17.51110 | 14384 ft | 377 kts | 224° |
| 2026-04-22 06:48 | 59.47295 | 17.47640 | 15057 ft | 381 kts | 225° |
| 2026-04-22 06:48 | 59.45321 | 17.44117 | 15711 ft | 386 kts | 224° |
| 2026-04-22 06:48 | 59.43337 | 17.40600 | 16372 ft | 390 kts | 224° |
| 2026-04-22 06:48 | 59.41306 | 17.37020 | 17002 ft | 395 kts | 224° |
| 2026-04-22 06:49 | 59.39250 | 17.33406 | 17667 ft | 398 kts | 224° |
| 2026-04-22 06:49 | 59.37170 | 17.29768 | 18312 ft | 403 kts | 224° |
| 2026-04-22 06:49 | 59.35061 | 17.26087 | 18962 ft | 408 kts | 223° |
| 2026-04-22 06:49 | 59.32931 | 17.22375 | 19592 ft | 413 kts | 223° |
| 2026-04-22 06:50 | 59.30772 | 17.18618 | 20203 ft | 418 kts | 223° |
| 2026-04-22 06:50 | 59.28581 | 17.14810 | 20780 ft | 423 kts | 223° |
| 2026-04-22 06:50 | 59.26362 | 17.10965 | 21373 ft | 428 kts | 223° |
| 2026-04-22 06:50 | 59.24148 | 17.07137 | 21943 ft | 432 kts | 222° |
| 2026-04-22 06:51 | 59.21881 | 17.03224 | 22503 ft | 437 kts | 222° |
| 2026-04-22 06:51 | 59.19588 | 16.99277 | 23058 ft | 441 kts | 221° |
| 2026-04-22 06:51 | 59.17239 | 16.95360 | 23581 ft | 446 kts | 220° |
| 2026-04-22 06:51 | 59.14836 | 16.91464 | 24096 ft | 450 kts | 219° |
| 2026-04-22 06:52 | 59.12407 | 16.87570 | 24581 ft | 454 kts | 219° |
| 2026-04-22 06:52 | 59.09951 | 16.83643 | 25071 ft | 459 kts | 219° |
| 2026-04-22 06:52 | 59.07476 | 16.79681 | 25503 ft | 464 kts | 219° |
| 2026-04-22 06:52 | 59.04966 | 16.75657 | 25952 ft | 468 kts | 219° |
| 2026-04-22 06:53 | 59.02448 | 16.71614 | 26395 ft | 472 kts | 219° |
| 2026-04-22 06:53 | 58.99906 | 16.67529 | 26863 ft | 475 kts | 219° |
| 2026-04-22 06:53 | 58.97374 | 16.63462 | 27270 ft | 479 kts | 219° |
| 2026-04-22 06:53 | 58.94785 | 16.59313 | 27670 ft | 484 kts | 218° |
| 2026-04-22 06:54 | 58.92177 | 16.55143 | 28067 ft | 488 kts | 218° |
| 2026-04-22 06:54 | 58.89547 | 16.50951 | 28462 ft | 491 kts | 218° |
| 2026-04-22 06:54 | 58.86893 | 16.46729 | 28825 ft | 495 kts | 218° |
| 2026-04-22 06:54 | 58.84217 | 16.42480 | 29222 ft | 499 kts | 218° |
| 2026-04-22 06:55 | 58.81527 | 16.38216 | 29608 ft | 502 kts | 218° |
| 2026-04-22 06:55 | 58.78851 | 16.33985 | 29978 ft | 505 kts | 218° |
| 2026-04-22 06:55 | 58.76119 | 16.29672 | 30357 ft | 508 kts | 218° |
| 2026-04-22 06:55 | 58.73371 | 16.25339 | 30714 ft | 512 kts | 218° |
| 2026-04-22 06:56 | 58.70608 | 16.20988 | 31051 ft | 515 kts | 218° |
| 2026-04-22 06:56 | 58.67819 | 16.16614 | 31370 ft | 519 kts | 218° |
| 2026-04-22 06:56 | 58.64999 | 16.12204 | 31726 ft | 522 kts | 218° |
| 2026-04-22 06:56 | 58.62169 | 16.07792 | 32124 ft | 524 kts | 218° |
| 2026-04-22 06:57 | 58.59332 | 16.03375 | 32556 ft | 524 kts | 217° |
| 2026-04-22 06:57 | 58.56506 | 15.98984 | 32997 ft | 523 kts | 217° |
| 2026-04-22 06:57 | 58.53709 | 15.94645 | 33407 ft | 524 kts | 217° |
| 2026-04-22 06:57 | 58.50838 | 15.90203 | 33799 ft | 525 kts | 217° |
| 2026-04-22 06:58 | 58.48034 | 15.85876 | 34213 ft | 524 kts | 217° |
| 2026-04-22 06:58 | 58.45201 | 15.81512 | 34634 ft | 524 kts | 217° |
| 2026-04-22 06:58 | 58.42373 | 15.77161 | 35153 ft | 520 kts | 217° |
| 2026-04-22 06:58 | 58.39558 | 15.72839 | 35691 ft | 516 kts | 217° |
| 2026-04-22 06:59 | 58.36765 | 15.68549 | 36199 ft | 514 kts | 217° |
| 2026-04-22 06:59 | 58.33976 | 15.64284 | 36686 ft | 511 kts | 217° |
| 2026-04-22 06:59 | 58.31206 | 15.60058 | 37097 ft | 510 kts | 217° |
| 2026-04-22 06:59 | 58.28446 | 15.55858 | 37563 ft | 506 kts | 217° |
| 2026-04-22 07:00 | 58.25701 | 15.51689 | 38079 ft | 501 kts | 217° |
| 2026-04-22 07:00 | 58.22979 | 15.47562 | 38514 ft | 499 kts | 217° |
| 2026-04-22 07:00 | 58.20306 | 15.43518 | 38893 ft | 497 kts | 217° |
| 2026-04-22 07:00 | 58.17603 | 15.39436 | 39235 ft | 496 kts | 217° |
| 2026-04-22 07:01 | 58.14904 | 15.35371 | 39574 ft | 495 kts | 217° |
| 2026-04-22 07:01 | 58.12210 | 15.31317 | 39861 ft | 494 kts | 217° |
| 2026-04-22 07:01 | 58.09514 | 15.27270 | 40107 ft | 495 kts | 217° |
| 2026-04-22 07:01 | 58.06810 | 15.23212 | 40249 ft | 499 kts | 217° |
| 2026-04-22 07:02 | 58.04071 | 15.19117 | 40254 ft | 505 kts | 217° |
| 2026-04-22 07:02 | 57.98552 | 15.10902 | 40246 ft | 503 kts | 217° |
| 2026-04-22 07:03 | 57.93055 | 15.02750 | 40258 ft | 502 kts | 217° |
| 2026-04-22 07:03 | 57.87570 | 14.94644 | 40255 ft | 501 kts | 217° |
| 2026-04-22 07:04 | 57.82120 | 14.86622 | 40256 ft | 501 kts | 217° |
| 2026-04-22 07:04 | 57.76624 | 14.78562 | 40260 ft | 501 kts | 217° |
| 2026-04-22 07:05 | 57.72050 | 14.71879 | 40257 ft | 501 kts | 217° |
| 2026-04-22 07:05 | 57.66544 | 14.63865 | 40257 ft | 502 kts | 217° |
| 2026-04-22 07:05 | 57.63788 | 14.59864 | 40044 ft | 500 kts | 217° |
| 2026-04-22 07:06 | 57.61047 | 14.55892 | 39805 ft | 497 kts | 217° |
| 2026-04-22 07:06 | 57.58314 | 14.51940 | 39562 ft | 497 kts | 217° |
| 2026-04-22 07:06 | 57.55583 | 14.47999 | 39311 ft | 497 kts | 217° |
| 2026-04-22 07:06 | 57.52848 | 14.44059 | 39060 ft | 497 kts | 216° |
| 2026-04-22 07:07 | 57.50113 | 14.40123 | 38813 ft | 496 kts | 216° |
| 2026-04-22 07:07 | 57.47380 | 14.36201 | 38560 ft | 497 kts | 216° |
| 2026-04-22 07:07 | 57.44644 | 14.32286 | 38315 ft | 497 kts | 216° |
| 2026-04-22 07:07 | 57.41896 | 14.28365 | 38065 ft | 497 kts | 216° |
| 2026-04-22 07:08 | 57.39175 | 14.24491 | 37824 ft | 498 kts | 216° |
| 2026-04-22 07:08 | 57.36424 | 14.20575 | 37568 ft | 498 kts | 216° |
| 2026-04-22 07:08 | 57.33669 | 14.16662 | 37321 ft | 498 kts | 216° |
| 2026-04-22 07:08 | 57.30916 | 14.12757 | 37072 ft | 498 kts | 216° |
| 2026-04-22 07:09 | 57.28188 | 14.08895 | 36841 ft | 490 kts | 216° |
| 2026-04-22 07:09 | 57.25489 | 14.05081 | 36469 ft | 485 kts | 216° |
| 2026-04-22 07:09 | 57.22817 | 14.01310 | 36074 ft | 482 kts | 216° |
| 2026-04-22 07:09 | 57.20155 | 13.97563 | 35651 ft | 478 kts | 216° |
| 2026-04-22 07:10 | 57.17509 | 13.93846 | 35217 ft | 479 kts | 216° |
| 2026-04-22 07:10 | 57.14844 | 13.90110 | 34789 ft | 482 kts | 216° |
| 2026-04-22 07:10 | 57.12165 | 13.86355 | 34067 ft | 486 kts | 216° |
| 2026-04-22 07:10 | 57.09457 | 13.82575 | 33177 ft | 492 kts | 216° |
| 2026-04-22 07:11 | 57.06708 | 13.78747 | 32254 ft | 498 kts | 216° |
| 2026-04-22 07:11 | 57.03934 | 13.74891 | 31437 ft | 501 kts | 216° |
| 2026-04-22 07:11 | 57.01162 | 13.71044 | 30816 ft | 498 kts | 216° |
| 2026-04-22 07:11 | 56.98440 | 13.67272 | 30172 ft | 495 kts | 216° |
| 2026-04-22 07:12 | 56.95702 | 13.63484 | 29522 ft | 491 kts | 216° |
| 2026-04-22 07:12 | 56.92987 | 13.59734 | 28879 ft | 486 kts | 216° |
| 2026-04-22 07:12 | 56.90292 | 13.56016 | 28244 ft | 482 kts | 216° |
| 2026-04-22 07:12 | 56.87623 | 13.52345 | 27614 ft | 477 kts | 216° |
| 2026-04-22 07:13 | 56.84980 | 13.48715 | 26979 ft | 473 kts | 217° |
| 2026-04-22 07:13 | 56.82360 | 13.45124 | 26346 ft | 468 kts | 217° |
| 2026-04-22 07:13 | 56.79766 | 13.41576 | 25705 ft | 464 kts | 217° |
| 2026-04-22 07:13 | 56.77197 | 13.38066 | 25068 ft | 460 kts | 217° |
| 2026-04-22 07:14 | 56.74645 | 13.34585 | 24427 ft | 455 kts | 217° |
| 2026-04-22 07:14 | 56.72121 | 13.31148 | 23811 ft | 450 kts | 217° |
| 2026-04-22 07:14 | 56.69658 | 13.27789 | 23205 ft | 445 kts | 217° |
| 2026-04-22 07:14 | 56.67195 | 13.24436 | 22586 ft | 440 kts | 218° |
| 2026-04-22 07:15 | 56.64757 | 13.21125 | 21983 ft | 435 kts | 218° |
| 2026-04-22 07:15 | 56.62343 | 13.17848 | 21374 ft | 430 kts | 217° |
| 2026-04-22 07:15 | 56.59953 | 13.14623 | 20767 ft | 426 kts | 217° |
| 2026-04-22 07:15 | 56.57584 | 13.11435 | 20176 ft | 421 kts | 217° |
| 2026-04-22 07:16 | 56.55241 | 13.08286 | 19583 ft | 417 kts | 217° |
| 2026-04-22 07:16 | 56.52922 | 13.05175 | 19006 ft | 412 kts | 217° |
| 2026-04-22 07:16 | 56.50624 | 13.02095 | 18423 ft | 407 kts | 217° |
| 2026-04-22 07:16 | 56.48354 | 12.99056 | 17841 ft | 403 kts | 217° |
| 2026-04-22 07:17 | 56.46110 | 12.96054 | 17265 ft | 399 kts | 218° |
| 2026-04-22 07:17 | 56.43891 | 12.93092 | 16697 ft | 395 kts | 218° |
| 2026-04-22 07:17 | 56.41718 | 12.90195 | 16142 ft | 391 kts | 218° |
| 2026-04-22 07:17 | 56.39539 | 12.87295 | 15573 ft | 387 kts | 218° |
| 2026-04-22 07:18 | 56.37374 | 12.84416 | 15010 ft | 385 kts | 218° |
| 2026-04-22 07:18 | 56.35222 | 12.81561 | 14447 ft | 381 kts | 218° |
| 2026-04-22 07:18 | 56.33092 | 12.78737 | 13893 ft | 378 kts | 218° |
| 2026-04-22 07:18 | 56.30984 | 12.75948 | 13340 ft | 374 kts | 218° |
| 2026-04-22 07:19 | 56.28896 | 12.73190 | 12794 ft | 371 kts | 218° |
| 2026-04-22 07:19 | 56.26844 | 12.70488 | 12585 ft | 358 kts | 218° |
| 2026-04-22 07:19 | 56.24878 | 12.67899 | 12459 ft | 343 kts | 218° |
| 2026-04-22 07:19 | 56.22992 | 12.65417 | 12329 ft | 331 kts | 218° |
| 2026-04-22 07:20 | 56.21163 | 12.63015 | 12199 ft | 321 kts | 218° |
| 2026-04-22 07:20 | 56.19384 | 12.60682 | 11919 ft | 315 kts | 218° |
| 2026-04-22 07:20 | 56.17575 | 12.58490 | 11582 ft | 314 kts | 209° |
| 2026-04-22 07:20 | 56.15484 | 12.57411 | 11243 ft | 314 kts | 184° |
| 2026-04-22 07:21 | 56.13307 | 12.57310 | 10936 ft | 311 kts | 179° |
| 2026-04-22 07:21 | 56.11171 | 12.57364 | 10654 ft | 311 kts | 179° |
| 2026-04-22 07:21 | 56.09005 | 12.57419 | 10398 ft | 311 kts | 179° |
| 2026-04-22 07:21 | 56.06842 | 12.57461 | 10141 ft | 311 kts | 179° |
| 2026-04-22 07:22 | 56.04685 | 12.57494 | 9902 ft | 309 kts | 180° |
| 2026-04-22 07:22 | 56.02534 | 12.57521 | 9650 ft | 308 kts | 180° |
| 2026-04-22 07:22 | 56.00390 | 12.57547 | 9408 ft | 308 kts | 180° |
| 2026-04-22 07:22 | 55.98251 | 12.57569 | 9168 ft | 306 kts | 180° |
| 2026-04-22 07:23 | 55.96126 | 12.57588 | 8916 ft | 305 kts | 180° |
| 2026-04-22 07:23 | 55.94005 | 12.57612 | 8661 ft | 304 kts | 180° |
| 2026-04-22 07:23 | 55.91893 | 12.57634 | 8407 ft | 303 kts | 180° |
| 2026-04-22 07:23 | 55.89785 | 12.57651 | 8155 ft | 302 kts | 180° |
| 2026-04-22 07:24 | 55.87715 | 12.57603 | 7908 ft | 299 kts | 185° |
| 2026-04-22 07:24 | 55.85702 | 12.56796 | 7658 ft | 295 kts | 200° |
| 2026-04-22 07:24 | 55.83768 | 12.55569 | 7403 ft | 292 kts | 202° |
| 2026-04-22 07:24 | 55.81864 | 12.54306 | 7168 ft | 292 kts | 202° |
| 2026-04-22 07:25 | 55.79960 | 12.53057 | 6922 ft | 291 kts | 202° |
| 2026-04-22 07:25 | 55.78059 | 12.51818 | 6664 ft | 290 kts | 202° |
| 2026-04-22 07:25 | 55.76167 | 12.50586 | 6408 ft | 288 kts | 202° |
| 2026-04-22 07:25 | 55.74313 | 12.49389 | 6160 ft | 286 kts | 202° |
| 2026-04-22 07:26 | 55.72439 | 12.48174 | 5908 ft | 285 kts | 202° |
| 2026-04-22 07:26 | 55.70578 | 12.46970 | 5656 ft | 284 kts | 202° |
| 2026-04-22 07:26 | 55.68722 | 12.45780 | 5392 ft | 282 kts | 202° |
| 2026-04-22 07:26 | 55.66874 | 12.44592 | 5164 ft | 282 kts | 202° |
| 2026-04-22 07:27 | 55.65055 | 12.43428 | 4915 ft | 275 kts | 202° |
| 2026-04-22 07:27 | 55.63280 | 12.42289 | 4657 ft | 269 kts | 202° |
| 2026-04-22 07:27 | 55.61540 | 12.41169 | 4407 ft | 263 kts | 202° |
| 2026-04-22 07:27 | 55.59911 | 12.39831 | 4195 ft | 253 kts | 216° |
| 2026-04-22 07:28 | 55.57283 | 12.36039 | 3830 ft | 242 kts | 225° |
| 2026-04-22 07:28 | 55.56017 | 12.34079 | 3659 ft | 242 kts | 225° |
| 2026-04-22 07:28 | 55.54753 | 12.32118 | 3480 ft | 241 kts | 225° |
| 2026-04-22 07:29 | 55.53494 | 12.30177 | 3308 ft | 240 kts | 225° |
| 2026-04-22 07:29 | 55.52235 | 12.28242 | 3130 ft | 240 kts | 225° |
| 2026-04-22 07:29 | 55.50978 | 12.26310 | 3014 ft | 239 kts | 225° |
| 2026-04-22 07:29 | 55.49670 | 12.24480 | 2996 ft | 242 kts | 213° |
| 2026-04-22 07:30 | 55.48037 | 12.23711 | 3003 ft | 246 kts | 181° |
| 2026-04-22 07:30 | 55.46403 | 12.24470 | 3003 ft | 245 kts | 148° |
| 2026-04-22 07:30 | 55.45136 | 12.26435 | 3007 ft | 242 kts | 128° |
| 2026-04-22 07:30 | 55.44069 | 12.28738 | 3006 ft | 243 kts | 125° |
| 2026-04-22 07:31 | 55.43221 | 12.31260 | 2999 ft | 238 kts | 103° |
| 2026-04-22 07:31 | 55.43190 | 12.34045 | 3000 ft | 220 kts | 68° |
| 2026-04-22 07:31 | 55.43800 | 12.36339 | 2997 ft | 201 kts | 51° |
| 2026-04-22 07:31 | 55.44701 | 12.38083 | 2998 ft | 184 kts | 36° |
| 2026-04-22 07:32 | 55.45662 | 12.39475 | 2999 ft | 176 kts | 36° |
| 2026-04-22 07:32 | 55.46595 | 12.40878 | 2997 ft | 176 kts | 36° |
| 2026-04-22 07:32 | 55.47513 | 12.42294 | 3034 ft | 173 kts | 37° |
| 2026-04-22 07:32 | 55.48411 | 12.43706 | 2940 ft | 174 kts | 37° |
| 2026-04-22 07:33 | 55.49315 | 12.45111 | 2614 ft | 170 kts | 36° |
| 2026-04-22 07:33 | 55.50176 | 12.46429 | 2351 ft | 158 kts | 36° |
| 2026-04-22 07:33 | 55.50969 | 12.47647 | 2142 ft | 144 kts | 36° |
| 2026-04-22 07:33 | 55.51699 | 12.48770 | 1954 ft | 134 kts | 36° |
| 2026-04-22 07:34 | 55.52365 | 12.49793 | 1792 ft | 123 kts | 36° |
| 2026-04-22 07:34 | 55.53001 | 12.50769 | 1639 ft | 120 kts | 36° |
| 2026-04-22 07:34 | 55.53630 | 12.51739 | 1476 ft | 120 kts | 36° |
| 2026-04-22 07:34 | 55.54258 | 12.52709 | 1320 ft | 120 kts | 37° |
| 2026-04-22 07:35 | 55.54886 | 12.53675 | 1157 ft | 120 kts | 37° |
| 2026-04-22 07:35 | 55.55512 | 12.54644 | 1001 ft | 120 kts | 37° |
| 2026-04-22 07:35 | 55.56138 | 12.55606 | 832 ft | 119 kts | 37° |
| 2026-04-22 07:35 | 55.56760 | 12.56570 | 683 ft | 119 kts | 37° |
| 2026-04-22 07:36 | 55.57378 | 12.57502 | 513 ft | 117 kts | 37° |
| 2026-04-22 07:36 | 55.58001 | 12.58450 | 364 ft | 120 kts | 38° |
| 2026-04-22 07:36 | 55.58617 | 12.59419 | 221 ft | 118 kts | 38° |
| 2026-04-22 07:36 | 55.59233 | 12.60370 | 55 ft | 117 kts | 38° |
| 2026-04-22 07:37 | 55.59816 | 12.61264 | 25 ft | 98 kts | 40° |
| 2026-04-22 07:37 | 55.60257 | 12.61952 | 26 ft | 74 kts | 41° |
| 2026-04-22 07:37 | 55.60606 | 12.62495 | 29 ft | 60 kts | 41° |
| 2026-04-22 07:37 | 55.60899 | 12.62951 | 25 ft | 53 kts | 41° |
| 2026-04-22 07:38 | 55.61160 | 12.63354 | 26 ft | 47 kts | 41° |
| 2026-04-22 07:38 | 55.61383 | 12.63699 | 24 ft | 35 kts | 41° |
| 2026-04-22 07:38 | 55.61536 | 12.63941 | 26 ft | 25 kts | 41° |
| 2026-04-22 07:38 | 55.61642 | 12.64078 | 30 ft | 19 kts | 18° |
| 2026-04-22 07:39 | 55.61784 | 12.64077 | 22 ft | 17 kts | 356° |
| 2026-04-22 07:39 | 55.61894 | 12.64092 | 22 ft | 17 kts | 20° |
| 2026-04-22 07:39 | 55.62010 | 12.64188 | 21 ft | 20 kts | 25° |
| 2026-04-22 07:39 | 55.62132 | 12.64291 | 23 ft | 16 kts | 25° |
| 2026-04-22 07:40 | 55.62229 | 12.64381 | 20 ft | 17 kts | 38° |
| 2026-04-22 07:40 | 55.62287 | 12.64562 | 24 ft | 18 kts | 66° |
| 2026-04-22 07:40 | 55.62330 | 12.64733 | 21 ft | 13 kts | 65° |
| 2026-04-22 07:40 | 55.62344 | 12.64873 | 23 ft | 13 kts | 105° |
| 2026-04-22 07:41 | 55.62295 | 12.65022 | 23 ft | 14 kts | 123° |
| 2026-04-22 07:41 | 55.62285 | 12.65178 | 21 ft | 13 kts | 77° |
| 2026-04-22 07:41 | 55.62292 | 12.65361 | 21 ft | 16 kts | 90° |
| 2026-04-22 07:41 | 55.62294 | 12.65541 | 21 ft | 15 kts | 89° |
| 2026-04-22 07:42 | 55.62297 | 12.65722 | 23 ft | 16 kts | 88° |
| 2026-04-22 07:42 | 55.62300 | 12.65908 | 21 ft | 14 kts | 85° |
| 2026-04-22 07:42 | 55.62356 | 12.66060 | 22 ft | 16 kts | 42° |
| 2026-04-22 07:42 | 55.62436 | 12.66184 | 21 ft | 13 kts | 41° |
| 2026-04-22 07:43 | 55.62504 | 12.66199 | 23 ft | 10 kts | 328° |
| 2026-04-22 07:43 | 55.62571 | 12.66140 | 22 ft | 12 kts | 348° |
| 2026-04-22 07:43 | 55.62655 | 12.66180 | 25 ft | 14 kts | 36° |
| 2026-04-22 07:43 | 55.62732 | 12.66299 | 21 ft | 13 kts | 41° |
| 2026-04-22 07:44 | 55.62810 | 12.66419 | 23 ft | 16 kts | 41° |
| 2026-04-22 07:44 | 55.62874 | 12.66517 | 21 ft | 8 kts | 41° |
| 2026-04-22 07:44 | 55.62890 | 12.66560 | 21 ft | 2 kts | 84° |
| 2026-04-22 07:44 | 55.62874 | 12.66619 | 23 ft | 8 kts | 128° |
| 2026-04-22 07:45 | 55.62851 | 12.66663 | 21 ft | 2 kts | 131° |
| 2026-04-22 07:45 | 55.62844 | 12.66678 | 23 ft | 1 kts | 131° |
| 2026-04-22 07:45 | 55.62844 | 12.66679 | 21 ft | 0 kts | 131° |